createdAt,value
2023-01-17T00:02:46.490Z,95666.97
2023-01-17T00:05:32.607Z,95674.16
2023-01-17T00:08:17.976Z,95668.34
2023-01-17T00:10:45.394Z,95669.63
2023-01-17T00:13:14.042Z,95664.88
2023-01-17T00:15:49.018Z,95658.53
2023-01-17T00:18:19.191Z,95666.22
2023-01-17T00:21:05.341Z,95672.56
2023-01-17T00:23:56.635Z,95669.38
2023-01-17T00:26:25.565Z,95674.91
2023-01-17T00:28:53.493Z,95673.28
2023-01-17T00:31:21.095Z,95680.50
2023-01-17T00:33:50.391Z,95683.38
2023-01-17T00:36:17.879Z,95672.75
2023-01-17T00:38:45.326Z,95679.34
2023-01-17T00:41:14.942Z,95673.81
2023-01-17T00:44:02.930Z,95673.78
2023-01-17T00:46:49.168Z,95676.97
2023-01-17T00:49:36.426Z,95673.78
2023-01-17T00:52:22.735Z,95677.97
2023-01-17T00:55:08.585Z,95679.28
2023-01-17T00:57:54.505Z,95673.44
2023-01-17T01:00:40.429Z,95679.00
2023-01-17T01:03:28.257Z,95685.28
2023-01-17T01:06:15.732Z,95678.88
2023-01-17T01:09:01.813Z,95686.28
2023-01-17T01:11:47.855Z,95676.69
2023-01-17T01:14:33.715Z,95666.63
2023-01-17T01:17:19.996Z,95685.69
2023-01-17T01:20:19.551Z,95687.81
2023-01-17T01:23:07.467Z,95685.41
2023-01-17T01:25:54.608Z,95693.09
2023-01-17T01:28:40.733Z,95680.91
2023-01-17T01:31:26.899Z,95691.50
2023-01-17T01:33:55.800Z,95694.41
2023-01-17T01:36:24.514Z,95690.38
2023-01-17T01:39:00.085Z,95680.84
2023-01-17T01:41:28.881Z,95683.00
2023-01-17T01:43:57.587Z,95685.66
2023-01-17T01:46:32.766Z,95685.66
2023-01-17T01:49:06.825Z,95680.06
2023-01-17T01:51:42.650Z,95680.06
2023-01-17T01:54:19.397Z,95671.38
2023-01-17T01:56:50.730Z,95673.72
2023-01-17T01:59:23.796Z,95673.19
2023-01-17T02:01:58.335Z,95675.03
2023-01-17T02:04:32.532Z,95670.81
2023-01-17T02:07:08.391Z,95674.28
2023-01-17T02:09:38.583Z,95670.84
2023-01-17T02:12:09.722Z,95674.56
2023-01-17T02:14:38.368Z,95659.69
2023-01-17T02:17:31.272Z,95665.78
2023-01-17T02:20:49.634Z,95670.53
2023-01-17T02:32:03.340Z,95671.78
2023-01-17T02:34:41.659Z,95678.66
2023-01-17T02:37:19.890Z,95673.63
2023-01-17T02:39:59.391Z,95680.50
2023-01-17T02:42:39.063Z,95678.19
2023-01-17T02:45:10.434Z,95676.56
2023-01-17T02:47:40.989Z,95682.88
2023-01-17T02:50:17.967Z,95683.41
2023-01-17T02:53:09.322Z,95694.00
2023-01-17T02:55:55.045Z,95691.63
2023-01-17T02:58:41.314Z,95699.84
2023-01-17T03:01:30.250Z,95718.13
2023-01-17T03:04:07.243Z,95715.72
2023-01-17T03:06:45.115Z,95713.03
2023-01-17T03:09:16.816Z,95719.66
2023-01-17T03:11:46.531Z,95721.44
2023-01-17T03:14:15.271Z,95723.59
2023-01-17T03:16:44.695Z,95734.69
2023-01-17T03:19:16.204Z,95735.44
2023-01-17T03:21:44.963Z,95742.84
2023-01-17T03:24:13.703Z,95747.88
2023-01-17T03:26:45.044Z,95738.84
2023-01-17T03:29:13.788Z,95751.06
2023-01-17T03:31:42.456Z,95754.50
2023-01-17T03:34:11.163Z,95755.56
2023-01-17T03:36:42.772Z,95762.75
2023-01-17T03:39:11.760Z,95761.66
2023-01-17T03:41:40.455Z,95762.44
2023-01-17T03:44:09.169Z,95771.22
2023-01-17T03:46:37.896Z,95767.50
2023-01-17T03:49:06.625Z,95769.09
2023-01-17T03:51:36.450Z,95763.81
2023-01-17T03:54:06.739Z,95777.56
2023-01-17T03:56:36.512Z,95780.72
2023-01-17T03:59:05.352Z,95776.44
2023-01-17T04:01:34.157Z,95794.50
2023-01-17T04:04:03.085Z,95799.25
2023-01-17T04:06:31.827Z,95800.59
2023-01-17T04:09:00.573Z,95803.50
2023-01-17T04:11:30.689Z,95800.34
2023-01-17T04:13:59.419Z,95799.25
2023-01-17T04:16:33.441Z,95813.81
2023-01-17T04:21:34.662Z,95818.31
2023-01-17T04:24:03.343Z,95807.19
2023-01-17T04:26:32.068Z,95818.38
2023-01-17T04:29:00.849Z,95830.00
2023-01-17T04:31:29.656Z,95833.72
2023-01-17T04:34:02.508Z,95837.13
2023-01-17T04:36:31.267Z,95837.69
2023-01-17T04:39:01.294Z,95837.94
2023-01-17T04:41:30.034Z,95848.81
2023-01-17T04:44:00.108Z,95838.47
2023-01-17T04:46:28.903Z,95853.84
2023-01-17T04:48:57.569Z,95875.59
2023-01-17T04:51:27.364Z,95872.16
2023-01-17T04:53:56.001Z,95878.78
2023-01-17T04:56:26.273Z,95880.63
2023-01-17T04:58:55.030Z,95884.56
2023-01-17T05:01:25.471Z,95891.19
2023-01-17T05:03:54.614Z,95888.81
2023-01-17T05:06:23.372Z,95887.19
2023-01-17T05:08:52.407Z,95892.00
2023-01-17T05:11:21.086Z,95898.63
2023-01-17T05:13:51.296Z,95899.16
2023-01-17T05:16:20.542Z,95894.09
2023-01-17T05:18:52.749Z,95896.22
2023-01-17T05:21:22.129Z,95895.16
2023-01-17T05:23:51.065Z,95899.97
2023-01-17T05:26:19.801Z,95914.31
2023-01-17T05:28:50.164Z,95917.25
2023-01-17T05:31:19.066Z,95910.59
2023-01-17T05:33:47.906Z,95919.06
2023-01-17T05:36:16.744Z,95917.47
2023-01-17T05:38:45.580Z,95923.84
2023-01-17T05:41:14.474Z,95915.31
2023-01-17T05:43:43.146Z,95914.81
2023-01-17T05:46:13.381Z,95928.06
2023-01-17T05:48:42.292Z,95933.09
2023-01-17T05:51:10.988Z,95928.63
2023-01-17T05:53:39.692Z,95939.25
2023-01-17T05:56:08.856Z,95944.56
2023-01-17T05:58:37.611Z,95946.69
2023-01-17T06:01:06.677Z,95942.75
2023-01-17T06:03:36.921Z,95956.25
2023-01-17T06:06:07.000Z,95946.72
2023-01-17T06:08:36.080Z,95952.06
2023-01-17T06:11:04.854Z,95963.72
2023-01-17T06:13:33.533Z,95961.06
2023-01-17T06:16:04.318Z,95958.16
2023-01-17T06:18:33.503Z,95965.59
2023-01-17T06:21:03.649Z,95963.72
2023-01-17T06:23:32.424Z,95953.13
2023-01-17T06:26:04.751Z,95956.84
2023-01-17T06:28:33.831Z,95955.22
2023-01-17T06:31:10.859Z,95959.50
2023-01-17T06:33:39.595Z,95959.53
2023-01-17T06:36:10.519Z,95956.34
2023-01-17T06:38:39.127Z,95964.03
2023-01-17T06:46:26.758Z,95969.06
2023-01-17T06:48:54.340Z,95967.50
2023-01-17T06:51:22.217Z,95975.44
2023-01-17T06:53:49.872Z,95978.63
2023-01-17T06:56:18.025Z,95996.63
2023-01-17T06:58:49.812Z,96004.34
2023-01-17T07:01:17.849Z,96007.53
2023-01-17T07:06:52.719Z,96010.44
2023-01-17T07:09:20.289Z,96004.06
2023-01-17T07:11:47.624Z,96014.16
2023-01-17T07:14:18.116Z,96009.66
2023-01-17T07:16:48.411Z,96019.19
2023-01-17T07:19:15.879Z,96022.66
2023-01-17T07:21:44.569Z,96029.25
2023-01-17T07:24:14.904Z,96027.94
2023-01-17T07:26:43.821Z,96036.69
2023-01-17T07:29:12.955Z,96031.13
2023-01-17T07:31:41.619Z,96036.94
2023-01-17T07:34:10.843Z,96038.53
2023-01-17T07:36:39.526Z,96038.50
2023-01-17T07:39:08.192Z,96035.91
2023-01-17T07:41:41.437Z,96036.41
2023-01-17T07:44:11.933Z,96042.22
2023-01-17T07:46:41.077Z,96031.63
2023-01-17T07:49:09.741Z,96034.84
2023-01-17T07:51:38.439Z,96026.34
2023-01-17T07:54:07.191Z,96029.00
2023-01-17T07:56:37.710Z,96034.81
2023-01-17T07:59:06.517Z,96031.91
2023-01-17T08:01:35.299Z,96037.47
2023-01-17T08:04:04.114Z,96037.22
2023-01-17T08:06:32.767Z,96038.00
2023-01-17T08:09:01.461Z,96033.25
2023-01-17T08:11:30.295Z,96035.91
2023-01-17T08:14:00.336Z,96032.97
2023-01-17T08:16:29.983Z,96026.38
2023-01-17T08:18:59.055Z,96033.25
2023-01-17T08:21:27.709Z,96031.94
2023-01-17T08:23:56.565Z,96048.31
2023-01-17T08:26:25.317Z,96054.16
2023-01-17T08:29:00.221Z,96041.72
2023-01-17T08:31:32.434Z,96063.16
2023-01-17T08:34:01.374Z,96064.50
2023-01-17T08:36:31.414Z,96073.50
2023-01-17T08:39:00.910Z,96062.91
2023-01-17T08:41:29.728Z,96084.88
2023-01-17T08:43:58.397Z,96085.41
2023-01-17T08:46:27.099Z,96088.31
2023-01-17T08:49:00.099Z,96095.47
2023-01-17T08:51:29.568Z,96105.78
2023-01-17T08:53:58.498Z,96101.81
2023-01-17T08:56:27.466Z,96121.69
2023-01-17T08:58:56.204Z,96111.66
2023-01-17T09:01:25.027Z,96115.34
2023-01-17T09:03:53.838Z,96114.56
2023-01-17T09:06:24.051Z,96126.47
2023-01-17T09:08:54.922Z,96117.22
2023-01-17T09:11:23.642Z,96125.94
2023-01-17T09:13:52.349Z,96139.22
2023-01-17T09:16:21.453Z,96143.41
2023-01-17T09:18:50.212Z,96135.97
2023-01-17T09:21:19.834Z,96141.81
2023-01-17T09:23:50.012Z,96147.13
2023-01-17T09:26:22.055Z,96139.16
2023-01-17T09:28:52.010Z,96151.63
2023-01-17T09:31:23.194Z,96146.31
2023-01-17T09:33:53.299Z,96145.00
2023-01-17T09:36:23.018Z,96150.81
2023-01-17T09:38:58.785Z,96156.13
2023-01-17T09:41:32.146Z,96151.38
2023-01-17T09:44:16.324Z,96160.63
2023-01-17T09:46:49.356Z,96152.69
2023-01-17T09:49:40.754Z,96156.94
2023-01-17T09:52:15.148Z,96153.47
2023-01-17T09:54:49.000Z,96162.25
2023-01-17T09:57:42.310Z,96167.81
2023-01-17T10:00:31.439Z,96164.13
2023-01-17T10:03:27.155Z,96162.53
2023-01-17T10:06:25.176Z,96165.44
2023-01-17T10:09:46.833Z,96171.00
2023-01-17T10:12:30.221Z,96175.25
2023-01-17T10:15:39.699Z,96171.28
2023-01-17T10:18:34.221Z,96163.59
2023-01-17T10:21:11.860Z,96168.09
2023-01-17T10:24:23.871Z,96164.13
2023-01-17T10:26:57.361Z,96173.13
2023-01-17T10:29:34.232Z,96164.91
2023-01-17T10:32:04.319Z,96176.28
2023-01-17T10:34:43.856Z,96177.88
2023-01-17T10:37:22.387Z,96178.94
2023-01-17T10:39:55.261Z,96176.31
2023-01-17T10:42:30.413Z,96183.72
2023-01-17T10:45:16.447Z,96192.22
2023-01-17T10:47:53.476Z,96183.47
2023-01-17T10:50:26.905Z,96192.75
2023-01-17T10:53:08.808Z,96185.06
2023-01-17T10:55:49.971Z,96190.66
2023-01-17T10:58:18.966Z,96198.56
2023-01-17T11:00:59.140Z,96190.91
2023-01-17T11:03:28.844Z,96178.94
2023-01-17T11:06:18.980Z,96192.75
2023-01-17T11:08:56.869Z,96181.09
2023-01-17T11:11:32.320Z,96182.66
2023-01-17T11:14:05.901Z,96188.50
2023-01-17T11:16:37.528Z,96185.03
2023-01-17T11:19:16.899Z,96184.00
2023-01-17T11:21:56.096Z,96198.06
2023-01-17T11:24:33.262Z,96192.22
2023-01-17T11:27:01.965Z,96203.88
2023-01-17T11:29:37.320Z,96189.56
2023-01-17T11:32:34.372Z,96197.53
2023-01-17T11:35:20.633Z,96189.06
2023-01-17T11:37:53.428Z,96179.50
2023-01-17T11:40:32.138Z,96188.50
2023-01-17T11:43:24.253Z,96181.63
2023-01-17T11:46:07.693Z,96187.69
2023-01-17T11:48:40.416Z,96192.22
2023-01-17T11:51:25.661Z,96191.69
2023-01-17T11:54:04.598Z,96194.59
2023-01-17T11:56:36.552Z,96193.78
2023-01-17T11:59:34.785Z,96199.91
2023-01-17T12:02:58.025Z,96195.41
2023-01-17T12:05:53.729Z,96193.56
2023-01-17T12:08:42.477Z,96200.16
2023-01-17T12:11:23.165Z,96195.94
2023-01-17T12:14:09.908Z,96189.59
2023-01-17T12:17:03.540Z,96185.06
2023-01-17T12:20:04.893Z,96190.91
2023-01-17T12:23:01.928Z,96200.72
2023-01-17T12:26:00.429Z,96198.59
2023-01-17T12:29:35.482Z,96200.16
2023-01-17T12:32:43.212Z,96188.50
2023-01-17T12:35:19.256Z,96195.94
2023-01-17T12:38:04.932Z,96202.31
2023-01-17T12:40:42.890Z,96198.59
2023-01-17T12:43:22.814Z,96203.38
2023-01-17T12:45:54.825Z,96198.06
2023-01-17T12:48:29.993Z,96204.16
2023-01-17T12:51:07.161Z,96206.03
2023-01-17T12:53:48.261Z,96203.59
2023-01-17T12:56:26.790Z,96202.03
2023-01-17T12:59:09.848Z,96199.91
2023-01-17T13:01:43.308Z,96196.47
2023-01-17T13:04:24.078Z,96200.72
2023-01-17T13:07:10.273Z,96197.25
2023-01-17T13:09:48.769Z,96201.25
2023-01-17T13:12:23.087Z,96198.88
2023-01-17T13:14:54.287Z,96208.41
2023-01-17T13:17:36.877Z,96205.47
2023-01-17T13:28:03.329Z,96220.81
2023-01-17T13:31:02.848Z,96223.47
2023-01-17T13:33:48.004Z,96227.97
2023-01-17T13:36:47.305Z,96224.00
2023-01-17T13:44:31.390Z,96240.97
2023-01-17T13:49:51.565Z,96246.50
2023-01-17T13:52:34.152Z,96246.78
2023-01-17T13:55:05.453Z,96237.78
2023-01-17T13:57:43.793Z,96243.09
2023-01-17T14:00:51.916Z,96254.72
2023-01-17T14:04:04.536Z,96258.97
2023-01-17T14:06:44.630Z,96263.69
2023-01-17T14:09:27.835Z,96258.66
2023-01-17T14:12:25.369Z,96262.09
2023-01-17T14:14:57.919Z,96264.66
2023-01-17T14:17:51.996Z,96259.91
2023-01-17T14:21:07.770Z,96264.56
2023-01-17T14:24:04.164Z,96258.25
2023-01-17T14:26:59.171Z,96249.50
2023-01-17T14:29:53.492Z,96244.97
2023-01-17T14:32:25.849Z,96234.59
2023-01-17T14:34:57.332Z,96238.88
2023-01-17T14:37:42.354Z,96245.28
2023-01-17T14:40:26.475Z,96250.53
2023-01-17T14:43:04.420Z,96255.53
2023-01-17T14:45:37.208Z,96266.09
2023-01-17T14:48:15.656Z,96277.75
2023-01-17T14:50:50.078Z,96273.91
2023-01-17T14:53:22.068Z,96270.63
2023-01-17T14:55:56.639Z,96268.13
2023-01-17T14:58:29.041Z,96270.41
2023-01-17T15:01:02.924Z,96272.78
2023-01-17T15:03:43.304Z,96275.66
2023-01-17T15:06:18.315Z,96271.13
2023-01-17T15:08:49.705Z,96283.91
2023-01-17T15:11:26.996Z,96289.00
2023-01-17T15:13:59.406Z,96283.94
2023-01-17T15:16:33.771Z,96286.84
2023-01-17T15:19:03.601Z,96290.13
2023-01-17T15:21:40.628Z,96291.94
2023-01-17T15:24:17.084Z,96289.47
2023-01-17T15:26:47.787Z,96287.34
2023-01-17T15:29:26.623Z,96285.09
2023-01-17T15:31:58.860Z,96287.56
2023-01-17T15:34:31.310Z,96289.72
2023-01-17T15:37:04.057Z,96297.72
2023-01-17T15:39:36.116Z,96302.69
2023-01-17T15:42:10.131Z,96296.22
2023-01-17T15:44:48.458Z,96289.28
2023-01-17T15:47:31.758Z,96296.59
2023-01-17T15:50:02.674Z,96296.72
2023-01-17T15:52:31.876Z,96296.59
2023-01-17T15:55:15.039Z,96291.94
2023-01-17T15:57:49.001Z,96296.69
2023-01-17T16:00:26.787Z,96290.94
2023-01-17T16:02:58.979Z,96292.06
2023-01-17T16:05:46.801Z,96299.00
2023-01-17T16:13:38.827Z,96313.25
2023-01-17T16:16:12.813Z,96313.50
2023-01-17T16:18:40.926Z,96321.41
2023-01-17T16:21:23.874Z,96315.47
2023-01-17T16:23:52.508Z,96306.63
2023-01-17T16:26:21.284Z,96300.13
2023-01-17T16:28:51.932Z,96310.19
2023-01-17T16:31:21.101Z,96308.22
2023-01-17T16:33:51.848Z,96307.69
2023-01-17T16:36:23.199Z,96302.84
2023-01-17T16:38:55.456Z,96303.38
2023-01-17T16:41:26.817Z,96294.84
2023-01-17T16:44:06.576Z,96303.03
2023-01-17T16:46:38.886Z,96291.88
2023-01-17T16:49:10.690Z,96290.56
2023-01-17T16:51:42.827Z,96288.91
2023-01-17T16:54:13.748Z,96290.81
2023-01-17T16:56:44.134Z,96290.91
2023-01-17T16:59:14.491Z,96289.88
2023-01-17T17:01:43.797Z,96287.41
2023-01-17T17:04:13.896Z,96293.94
2023-01-17T17:06:43.661Z,96293.81
2023-01-17T17:09:18.625Z,96294.25
2023-01-17T17:11:49.671Z,96281.97
2023-01-17T17:14:23.030Z,96283.00
2023-01-17T17:16:55.260Z,96279.81
2023-01-17T17:19:24.536Z,96280.75
2023-01-17T17:21:53.659Z,96286.25
2023-01-17T17:24:22.473Z,96276.34
2023-01-17T17:26:51.307Z,96284.22
2023-01-17T17:29:22.221Z,96294.81
2023-01-17T17:31:51.087Z,96306.81
2023-01-17T17:34:20.033Z,96316.94
2023-01-17T17:36:48.794Z,96316.13
2023-01-17T17:39:18.713Z,96318.72
2023-01-17T17:41:48.627Z,96311.91
2023-01-17T17:44:18.012Z,96318.47
2023-01-17T17:46:54.271Z,96316.31
2023-01-17T17:49:23.008Z,96307.19
2023-01-17T17:51:51.917Z,96309.16
2023-01-17T17:54:56.795Z,96316.06
2023-01-17T17:57:25.600Z,96309.50
2023-01-17T17:59:59.800Z,96307.50
2023-01-17T18:02:30.109Z,96300.88
2023-01-17T18:07:42.105Z,96310.34
2023-01-17T18:10:22.082Z,96309.38
2023-01-17T18:13:00.824Z,96311.75
2023-01-17T18:15:33.422Z,96310.84
2023-01-17T18:19:04.088Z,96313.66
2023-01-17T18:21:38.896Z,96318.06
2023-01-17T18:24:11.874Z,96311.31
2023-01-17T18:26:43.868Z,96312.19
2023-01-17T18:30:13.050Z,96314.72
2023-01-17T18:33:06.570Z,96309.81
2023-01-17T18:36:21.100Z,96309.03
2023-01-17T19:40:23.162Z,96346.38
2023-01-17T19:42:52.300Z,96343.44
2023-01-17T19:45:22.609Z,96342.59
2023-01-17T19:47:52.189Z,96343.63
2023-01-17T19:50:21.500Z,96351.16
2023-01-17T19:53:00.821Z,96343.19
2023-01-17T19:55:31.832Z,96340.69
2023-01-17T19:58:03.079Z,96354.41
2023-01-17T20:00:45.974Z,96358.06
2023-01-17T20:03:15.373Z,96359.66
2023-01-17T20:05:46.416Z,96353.59
2023-01-17T20:08:15.770Z,96357.38
2023-01-17T20:10:49.130Z,96374.41
2023-01-17T20:13:18.507Z,96367.09
2023-01-17T20:15:48.300Z,96378.28
2023-01-17T20:18:17.843Z,96371.97
2023-01-17T20:20:56.962Z,96381.59
2023-01-17T20:23:27.328Z,96374.28
2023-01-17T20:26:01.391Z,96374.28
2023-01-17T20:28:32.900Z,96375.41
2023-01-17T20:31:09.837Z,96382.31
2023-01-17T20:33:38.956Z,96386.88
2023-01-17T20:36:11.560Z,96385.97
2023-01-17T20:38:46.201Z,96379.56
2023-01-17T20:41:20.009Z,96386.44
2023-01-17T20:43:51.962Z,96391.09
2023-01-17T20:46:27.239Z,96390.19
2023-01-17T20:49:04.800Z,96397.84
2023-01-17T20:51:38.429Z,96388.13
2023-01-17T20:54:11.592Z,96408.28
2023-01-17T20:56:42.995Z,96396.16
2023-01-17T20:59:17.977Z,96390.41
2023-01-17T21:01:47.464Z,96385.97
2023-01-17T21:04:18.070Z,96389.84
2023-01-17T21:06:47.951Z,96399.91
2023-01-17T21:09:17.379Z,96398.38
2023-01-17T21:11:48.589Z,96399.97
2023-01-17T21:14:17.971Z,96393.72
2023-01-17T21:16:47.471Z,96396.00
2023-01-17T21:19:17.335Z,96382.31
2023-01-17T21:21:48.853Z,96380.50
2023-01-17T21:24:19.401Z,96385.84
2023-01-17T21:26:51.715Z,96385.72
2023-01-17T21:29:21.216Z,96388.81
2023-01-17T21:32:21.308Z,96392.69
2023-01-17T21:35:02.801Z,96390.19
2023-01-17T21:37:32.059Z,96385.53
2023-01-17T21:40:02.495Z,96383.00
2023-01-17T21:42:34.916Z,96380.38
2023-01-17T21:45:03.855Z,96370.88
2023-01-17T21:47:32.888Z,96385.72
2023-01-17T21:50:02.200Z,96379.09
2023-01-17T21:52:31.972Z,96379.47
2023-01-17T21:55:14.593Z,96373.16
2023-01-17T21:58:10.490Z,96367.44
2023-01-17T22:00:39.312Z,96367.91
2023-01-17T22:03:08.266Z,96357.28
2023-01-17T22:05:37.538Z,96356.91
2023-01-17T22:08:14.549Z,96362.41
2023-01-17T22:10:46.572Z,96348.34
2023-01-17T22:13:19.676Z,96343.44
2023-01-17T22:16:00.568Z,96342.28
2023-01-17T22:18:30.606Z,96341.72
2023-01-17T22:20:59.782Z,96345.84
2023-01-17T22:23:28.807Z,96338.84
2023-01-17T22:26:04.110Z,96336.53
2023-01-17T22:28:35.482Z,96337.38
2023-01-17T22:31:10.851Z,96328.44
2023-01-17T22:33:43.154Z,96330.81
2023-01-17T22:39:07.433Z,96330.53
2023-01-17T22:41:39.817Z,96334.88
2023-01-17T22:44:12.849Z,96329.16
2023-01-17T22:46:42.366Z,96321.94
2023-01-17T22:49:17.039Z,96323.78
2023-01-17T22:51:46.326Z,96319.19
2023-01-17T22:54:15.634Z,96321.25
2023-01-17T22:56:45.150Z,96306.16
2023-01-17T22:59:16.141Z,96312.09
2023-01-17T23:01:45.035Z,96304.19
2023-01-17T23:04:17.341Z,96296.78
2023-01-17T23:06:46.197Z,96297.94
2023-01-17T23:09:18.014Z,96286.28
2023-01-17T23:11:50.850Z,96280.47
2023-01-17T23:14:24.779Z,96277.25
2023-01-17T23:17:13.397Z,96275.53
2023-01-17T23:19:44.789Z,96267.31
2023-01-17T23:22:17.612Z,96264.66
2023-01-17T23:24:50.954Z,96269.00
2023-01-17T23:27:40.921Z,96278.00
2023-01-17T23:30:15.475Z,96279.16
2023-01-17T23:32:48.532Z,96279.03
2023-01-17T23:35:20.439Z,96278.66
2023-01-17T23:38:06.855Z,96274.56
2023-01-17T23:40:38.289Z,96275.22
2023-01-17T23:43:24.395Z,96279.53
2023-01-17T23:45:56.972Z,96280.22
2023-01-17T23:49:03.884Z,96294.75
2023-01-17T23:51:32.959Z,96279.19
2023-01-17T23:54:05.502Z,96280.84
2023-01-17T23:56:35.260Z,96287.22
2023-01-17T23:59:04.548Z,96282.00
